createdAt,value
2023-01-19T00:01:25.031Z,96484.53
2023-01-19T00:03:53.641Z,96491.34
2023-01-19T00:06:22.149Z,96488.06
2023-01-19T00:08:51.225Z,96492.38
2023-01-19T00:11:20.645Z,96495.13
2023-01-19T00:13:50.904Z,96499.59
2023-01-19T00:16:22.890Z,96500.63
2023-01-19T00:18:52.706Z,96500.56
2023-01-19T00:21:22.371Z,96497.28
2023-01-19T00:23:52.648Z,96504.81
2023-01-19T00:26:23.065Z,96506.59
2023-01-19T00:28:52.879Z,96512.47
2023-01-19T00:31:22.776Z,96509.34
2023-01-19T00:33:55.206Z,96515.25
2023-01-19T00:36:23.716Z,96519.53
2023-01-19T00:38:52.275Z,96510.72
2023-01-19T00:41:41.396Z,96516.66
2023-01-19T00:44:10.604Z,96516.03
2023-01-19T00:46:40.629Z,96521.50
2023-01-19T00:49:09.137Z,96528.22
2023-01-19T00:51:38.156Z,96517.47
2023-01-19T00:54:10.264Z,96528.47
2023-01-19T00:56:39.254Z,96526.78
2023-01-19T00:59:07.698Z,96535.25
2023-01-19T01:01:45.615Z,96531.84
2023-01-19T01:04:16.161Z,96537.81
2023-01-19T01:06:44.817Z,96533.72
2023-01-19T01:09:13.354Z,96538.81
2023-01-19T01:11:43.010Z,96538.75
2023-01-19T01:14:12.968Z,96541.19
2023-01-19T01:16:42.988Z,96534.69
2023-01-19T01:19:11.685Z,96537.94
2023-01-19T01:21:41.674Z,96526.53
2023-01-19T01:24:11.038Z,96527.31
2023-01-19T01:26:39.662Z,96539.16
2023-01-19T01:29:08.686Z,96530.78
2023-01-19T01:31:37.378Z,96535.78
2023-01-19T01:34:06.058Z,96542.44
2023-01-19T01:36:35.484Z,96544.03
2023-01-19T01:39:05.434Z,96532.47
2023-01-19T01:41:33.947Z,96540.88
2023-01-19T01:44:06.219Z,96546.78
2023-01-19T01:46:34.781Z,96545.97
2023-01-19T01:49:06.826Z,96549.38
2023-01-19T01:51:40.146Z,96547.69
2023-01-19T01:54:16.328Z,96558.56
2023-01-19T01:56:47.525Z,96548.69
2023-01-19T01:59:26.108Z,96549.56
2023-01-19T02:02:14.204Z,96553.00
2023-01-19T02:04:48.595Z,96557.34
2023-01-19T02:07:40.863Z,96558.22
2023-01-19T02:10:28.789Z,96564.09
2023-01-19T02:13:16.092Z,96564.75
2023-01-19T02:15:45.906Z,96567.47
2023-01-19T02:18:15.090Z,96568.44
2023-01-19T02:20:49.509Z,96568.38
2023-01-19T02:23:24.916Z,96571.00
2023-01-19T02:25:55.209Z,96572.63
2023-01-19T02:28:25.370Z,96572.50
2023-01-19T02:30:54.056Z,96573.50
2023-01-19T02:33:22.900Z,96580.31
2023-01-19T02:35:53.489Z,96577.06
2023-01-19T02:38:22.218Z,96579.41
2023-01-19T02:40:51.548Z,96576.19
2023-01-19T02:43:21.611Z,96570.19
2023-01-19T02:45:50.444Z,96572.72
2023-01-19T02:48:21.553Z,96571.94
2023-01-19T02:50:53.144Z,96572.78
2023-01-19T02:53:47.911Z,96567.09
2023-01-19T02:56:49.232Z,96572.09
2023-01-19T02:59:31.317Z,96578.75
2023-01-19T03:02:10.566Z,96573.75
2023-01-19T03:04:56.384Z,96577.06
2023-01-19T03:07:34.137Z,96581.28
2023-01-19T03:10:08.424Z,96584.66
2023-01-19T03:12:45.185Z,96576.28
2023-01-19T03:15:20.612Z,96584.53
2023-01-19T03:17:51.135Z,96587.00
2023-01-19T03:20:21.977Z,96583.81
2023-01-19T03:22:55.168Z,96584.66
2023-01-19T03:25:26.173Z,96591.41
2023-01-19T03:27:58.412Z,96591.38
2023-01-19T03:30:32.423Z,96587.31
2023-01-19T03:33:07.251Z,96594.88
2023-01-19T03:35:41.079Z,96591.56
2023-01-19T03:38:15.932Z,96588.97
2023-01-19T03:40:47.406Z,96597.22
2023-01-19T03:43:18.357Z,96598.88
2023-01-19T03:45:48.595Z,96599.81
2023-01-19T03:48:18.105Z,96597.38
2023-01-19T03:50:46.615Z,96594.84
2023-01-19T03:53:16.911Z,96596.47
2023-01-19T03:55:48.326Z,96593.13
2023-01-19T03:58:17.305Z,96606.47
2023-01-19T04:00:45.819Z,96606.44
2023-01-19T04:03:17.627Z,96603.88
2023-01-19T04:05:46.419Z,96610.47
2023-01-19T04:08:14.936Z,96607.13
2023-01-19T04:10:43.513Z,96597.91
2023-01-19T04:13:11.938Z,96599.56
2023-01-19T04:15:40.675Z,96598.66
2023-01-19T04:18:09.817Z,96593.69
2023-01-19T04:20:39.670Z,96601.16
2023-01-19T04:23:08.315Z,96600.34
2023-01-19T04:25:38.890Z,96596.13
2023-01-19T04:28:07.337Z,96592.72
2023-01-19T04:30:35.884Z,96598.63
2023-01-19T04:33:04.488Z,96598.72
2023-01-19T04:35:34.269Z,96595.41
2023-01-19T04:38:04.042Z,96597.03
2023-01-19T04:40:32.480Z,96596.22
2023-01-19T04:43:01.253Z,96600.56
2023-01-19T04:45:30.013Z,96597.31
2023-01-19T04:47:58.498Z,96598.16
2023-01-19T04:50:27.151Z,96599.09
2023-01-19T04:52:55.569Z,96601.59
2023-01-19T04:55:25.887Z,96605.91
2023-01-19T04:57:54.907Z,96604.19
2023-01-19T05:00:23.612Z,96593.31
2023-01-19T05:02:52.299Z,96605.03
2023-01-19T05:05:20.753Z,96603.50
2023-01-19T05:07:49.253Z,96609.31
2023-01-19T05:10:18.146Z,96616.88
2023-01-19T05:12:48.090Z,96617.69
2023-01-19T05:15:16.676Z,96616.88
2023-01-19T05:17:45.171Z,96626.91
2023-01-19T05:20:16.358Z,96625.34
2023-01-19T05:22:49.991Z,96623.59
2023-01-19T05:25:19.105Z,96628.63
2023-01-19T05:27:49.249Z,96627.88
2023-01-19T05:30:19.184Z,96631.22
2023-01-19T05:32:47.790Z,96636.31
2023-01-19T05:35:20.130Z,96640.50
2023-01-19T05:37:53.596Z,96632.94
2023-01-19T05:40:22.498Z,96636.41
2023-01-19T05:42:53.311Z,96634.66
2023-01-19T05:45:21.970Z,96637.22
2023-01-19T05:47:50.960Z,96639.81
2023-01-19T05:50:20.186Z,96638.09
2023-01-19T05:52:48.696Z,96634.66
2023-01-19T05:55:17.486Z,96638.88
2023-01-19T05:57:45.973Z,96649.66
2023-01-19T06:00:17.060Z,96647.13
2023-01-19T06:02:46.607Z,96650.53
2023-01-19T06:05:15.546Z,96653.84
2023-01-19T06:07:44.033Z,96653.03
2023-01-19T06:10:12.783Z,96655.53
2023-01-19T06:12:41.881Z,96655.50
2023-01-19T06:15:11.173Z,96657.13
2023-01-19T06:17:40.999Z,96659.66
2023-01-19T06:20:10.832Z,96654.59
2023-01-19T06:22:39.403Z,96653.84
2023-01-19T06:25:08.439Z,96656.63
2023-01-19T06:27:37.000Z,96657.75
2023-01-19T06:30:06.477Z,96654.41
2023-01-19T06:32:35.018Z,96651.81
2023-01-19T06:35:05.297Z,96659.47
2023-01-19T06:37:33.736Z,96659.50
2023-01-19T06:40:02.237Z,96653.72
2023-01-19T06:42:30.908Z,96665.38
2023-01-19T06:44:59.380Z,96672.91
2023-01-19T06:47:27.878Z,96672.91
2023-01-19T06:49:56.594Z,96668.75
2023-01-19T06:52:26.914Z,96670.44
2023-01-19T06:54:55.561Z,96678.00
2023-01-19T06:57:25.883Z,96671.25
2023-01-19T06:59:54.408Z,96674.69
2023-01-19T07:02:26.639Z,96675.47
2023-01-19T07:04:56.700Z,96685.63
2023-01-19T07:07:27.188Z,96686.63
2023-01-19T07:09:55.743Z,96686.53
2023-01-19T07:12:24.211Z,96698.28
2023-01-19T07:14:53.094Z,96692.47
2023-01-19T07:17:21.638Z,96697.47
2023-01-19T07:19:51.885Z,96693.25
2023-01-19T07:22:20.936Z,96700.03
2023-01-19T07:24:50.785Z,96705.13
2023-01-19T07:27:19.288Z,96711.84
2023-01-19T07:29:47.894Z,96713.50
2023-01-19T07:32:16.493Z,96705.88
2023-01-19T07:34:45.219Z,96702.44
2023-01-19T07:37:13.853Z,96698.28
2023-01-19T07:39:43.279Z,96710.78
2023-01-19T07:42:13.458Z,96710.78
2023-01-19T07:44:42.279Z,96720.06
2023-01-19T07:47:15.640Z,96721.78
2023-01-19T07:49:44.097Z,96722.78
2023-01-19T07:52:12.678Z,96721.00
2023-01-19T07:54:41.526Z,96714.19
2023-01-19T07:57:10.118Z,96720.06
2023-01-19T07:59:39.997Z,96723.38
2023-01-19T08:02:11.377Z,96719.97
2023-01-19T08:04:40.311Z,96729.94
2023-01-19T08:07:09.434Z,96736.44
2023-01-19T08:09:37.896Z,96738.84
2023-01-19T08:12:07.245Z,96738.66
2023-01-19T08:14:35.787Z,96742.84
2023-01-19T08:17:05.707Z,96750.25
2023-01-19T08:19:34.437Z,96756.06
2023-01-19T08:22:03.036Z,96753.41
2023-01-19T08:24:31.551Z,96755.75
2023-01-19T08:27:01.078Z,96756.59
2023-01-19T08:29:30.804Z,96753.03
2023-01-19T08:32:01.139Z,96756.28
2023-01-19T08:34:31.930Z,96760.38
2023-01-19T08:37:00.813Z,96745.28
2023-01-19T08:39:29.373Z,96746.09
2023-01-19T08:41:59.184Z,96753.91
2023-01-19T08:44:28.235Z,96754.78
2023-01-19T08:46:56.691Z,96747.16
2023-01-19T08:49:25.366Z,96754.06
2023-01-19T08:51:55.532Z,96766.56
2023-01-19T08:54:24.308Z,96748.88
2023-01-19T08:56:52.717Z,96752.81
2023-01-19T08:59:21.161Z,96744.94
2023-01-19T09:01:49.834Z,96748.94
2023-01-19T09:04:18.393Z,96751.34
2023-01-19T09:06:46.990Z,96751.16
2023-01-19T09:09:16.887Z,96749.47
2023-01-19T09:11:48.314Z,96752.81
2023-01-19T09:14:16.791Z,96753.81
2023-01-19T09:16:45.369Z,96756.22
2023-01-19T09:19:14.117Z,96758.22
2023-01-19T09:21:42.602Z,96755.78
2023-01-19T09:24:11.111Z,96760.16
2023-01-19T09:26:41.082Z,96762.56
2023-01-19T09:29:09.601Z,96755.91
2023-01-19T09:31:40.160Z,96759.22
2023-01-19T09:34:08.770Z,96759.44
2023-01-19T09:36:39.481Z,96756.94
2023-01-19T09:39:08.214Z,96766.06
2023-01-19T09:41:39.663Z,96758.38
2023-01-19T09:44:18.599Z,96780.53
2023-01-19T09:46:47.310Z,96768.59
2023-01-19T09:49:18.590Z,96777.13
2023-01-19T09:51:49.848Z,96779.25
2023-01-19T09:54:20.963Z,96777.66
2023-01-19T09:56:52.679Z,96772.59
2023-01-19T09:59:25.664Z,96775.03
2023-01-19T10:02:20.352Z,96782.09
2023-01-19T10:04:59.792Z,96774.19
2023-01-19T10:07:48.823Z,96777.00
2023-01-19T10:10:20.774Z,96774.19
2023-01-19T10:13:12.094Z,96773.75
2023-01-19T10:15:52.790Z,96776.25
2023-01-19T10:18:25.615Z,96772.66
2023-01-19T10:21:00.921Z,96765.03
2023-01-19T10:23:39.328Z,96771.03
2023-01-19T10:26:15.443Z,96762.63
2023-01-19T10:28:46.501Z,96768.34
2023-01-19T10:31:19.196Z,96764.44
2023-01-19T10:33:47.859Z,96759.44
2023-01-19T10:36:21.402Z,96753.97
2023-01-19T10:38:50.894Z,96752.41
2023-01-19T10:41:24.171Z,96754.09
2023-01-19T10:44:00.873Z,96755.69
2023-01-19T10:46:38.462Z,96749.19
2023-01-19T10:49:07.841Z,96760.88
2023-01-19T10:51:48.413Z,96757.44
2023-01-19T10:54:17.473Z,96759.34
2023-01-19T10:56:53.353Z,96758.66
2023-01-19T10:59:34.744Z,96759.78
2023-01-19T11:02:26.558Z,96751.97
2023-01-19T11:04:57.529Z,96755.88
2023-01-19T11:07:30.332Z,96750.94
2023-01-19T11:10:22.559Z,96748.41
2023-01-19T11:13:02.366Z,96749.22
2023-01-19T11:15:34.740Z,96737.44
2023-01-19T11:18:06.690Z,96742.44
2023-01-19T11:20:48.993Z,96751.44
2023-01-19T11:23:25.716Z,96750.44
2023-01-19T11:25:56.699Z,96755.13
2023-01-19T11:28:29.660Z,96753.13
2023-01-19T11:31:00.832Z,96752.75
2023-01-19T11:33:37.703Z,96753.75
2023-01-19T11:36:08.256Z,96756.31
2023-01-19T11:38:44.132Z,96748.22
2023-01-19T11:41:20.531Z,96749.16
2023-01-19T11:46:35.068Z,96751.06
2023-01-19T11:49:07.278Z,96749.22
2023-01-19T11:51:47.553Z,96746.69
2023-01-19T11:54:23.600Z,96737.13
2023-01-19T11:56:55.409Z,96738.84
2023-01-19T11:59:25.080Z,96735.50
2023-01-19T12:01:58.550Z,96730.88
2023-01-19T12:04:31.389Z,96730.16
2023-01-19T12:07:06.842Z,96729.13
2023-01-19T12:09:42.585Z,96735.75
2023-01-19T12:12:22.218Z,96728.53
2023-01-19T12:14:56.893Z,96736.09
2023-01-19T12:17:28.456Z,96735.28
2023-01-19T12:20:04.771Z,96745.66
2023-01-19T12:22:40.405Z,96735.81
2023-01-19T12:25:19.624Z,96739.72
2023-01-19T12:27:50.399Z,96739.06
2023-01-19T12:30:21.965Z,96737.97
2023-01-19T12:32:52.171Z,96739.06
2023-01-19T12:35:55.055Z,96732.38
2023-01-19T12:38:33.324Z,96744.41
2023-01-19T12:41:23.361Z,96730.25
2023-01-19T12:44:27.596Z,96737.34
2023-01-19T12:47:03.381Z,96725.34
2023-01-19T12:49:36.431Z,96728.47
2023-01-19T12:52:28.077Z,96731.97
2023-01-19T12:55:01.729Z,96728.53
2023-01-19T12:57:34.795Z,96732.16
2023-01-19T13:00:07.226Z,96728.47
2023-01-19T13:02:47.310Z,96732.38
2023-01-19T13:05:25.395Z,96722.41
2023-01-19T13:08:23.153Z,96724.41
2023-01-19T13:11:19.516Z,96725.34
2023-01-19T13:14:29.594Z,96719.63
2023-01-19T13:17:05.714Z,96722.63
2023-01-19T13:19:44.881Z,96723.50
2023-01-19T13:23:02.612Z,96727.53
2023-01-19T13:25:36.486Z,96723.53
2023-01-19T13:28:11.921Z,96720.34
2023-01-19T13:30:52.876Z,96718.09
2023-01-19T13:33:24.472Z,96722.19
2023-01-19T13:35:55.321Z,96720.06
2023-01-19T13:38:25.493Z,96731.44
2023-01-19T13:40:57.608Z,96721.91
2023-01-19T13:43:31.201Z,96730.09
2023-01-19T13:46:00.969Z,96735.47
2023-01-19T13:48:29.718Z,96721.97
2023-01-19T13:51:17.824Z,96731.09
2023-01-19T13:53:54.739Z,96731.66
2023-01-19T13:56:25.987Z,96737.88
2023-01-19T13:59:10.238Z,96730.94
2023-01-19T14:01:40.398Z,96734.16
2023-01-19T14:04:23.812Z,96737.28
2023-01-19T14:06:55.596Z,96737.41
2023-01-19T14:09:24.313Z,96732.41
2023-01-19T14:12:15.765Z,96736.78
2023-01-19T14:14:48.299Z,96734.75
2023-01-19T14:17:25.525Z,96738.34
2023-01-19T14:19:55.355Z,96742.75
2023-01-19T14:22:39.618Z,96743.25
2023-01-19T14:25:29.041Z,96744.81
2023-01-19T14:28:29.259Z,96741.03
2023-01-19T14:30:59.317Z,96746.09
2023-01-19T14:33:36.120Z,96742.00
2023-01-19T14:36:30.237Z,96741.47
2023-01-19T14:39:00.474Z,96742.91
2023-01-19T14:41:31.295Z,96739.47
2023-01-19T14:44:01.682Z,96740.25
2023-01-19T14:46:30.501Z,96753.00
2023-01-19T14:49:03.314Z,96748.78
2023-01-19T14:51:32.998Z,96742.22
2023-01-19T14:54:03.492Z,96748.13
2023-01-19T14:56:34.059Z,96740.84
2023-01-19T14:59:09.409Z,96742.59
2023-01-19T15:01:38.524Z,96745.91
2023-01-19T15:04:07.170Z,96749.03
2023-01-19T15:06:41.233Z,96745.06
2023-01-19T15:09:12.846Z,96749.25
2023-01-19T15:11:42.376Z,96746.41
2023-01-19T15:14:14.660Z,96741.53
2023-01-19T15:16:43.700Z,96745.19
2023-01-19T15:19:13.861Z,96746.31
2023-01-19T15:21:42.979Z,96741.41
2023-01-19T15:24:12.632Z,96749.59
2023-01-19T15:26:43.202Z,96748.13
2023-01-19T15:29:23.264Z,96755.78
2023-01-19T15:31:53.799Z,96751.63
2023-01-19T15:34:22.489Z,96738.94
2023-01-19T15:36:51.063Z,96744.16
2023-01-19T15:39:19.670Z,96747.47
2023-01-19T15:41:48.308Z,96742.09
2023-01-19T15:44:16.934Z,96749.63
2023-01-19T15:46:46.747Z,96746.31
2023-01-19T15:49:15.209Z,96743.00
2023-01-19T15:51:43.720Z,96748.97
2023-01-19T15:54:14.691Z,96744.75
2023-01-19T15:56:43.536Z,96752.28
2023-01-19T15:59:12.022Z,96750.13
2023-01-19T16:01:41.265Z,96747.81
2023-01-19T16:04:12.084Z,96749.69
2023-01-19T16:06:40.719Z,96743.94
2023-01-19T16:09:09.219Z,96743.94
2023-01-19T16:11:38.677Z,96744.00
2023-01-19T16:14:07.270Z,96751.69
2023-01-19T16:16:35.928Z,96750.28
2023-01-19T16:19:05.027Z,96755.41
2023-01-19T16:21:35.198Z,96766.28
2023-01-19T16:24:03.787Z,96757.13
2023-01-19T16:26:34.896Z,96765.66
2023-01-19T16:29:08.548Z,96752.25
2023-01-19T16:31:37.563Z,96751.06
2023-01-19T16:34:06.269Z,96759.63
2023-01-19T16:36:38.554Z,96760.34
2023-01-19T16:39:09.321Z,96758.59
2023-01-19T16:41:37.963Z,96749.38
2023-01-19T16:44:11.631Z,96747.69
2023-01-19T16:46:42.463Z,96750.88
2023-01-19T16:49:14.085Z,96746.81
2023-01-19T16:51:44.507Z,96743.34
2023-01-19T16:54:14.622Z,96747.63
2023-01-19T16:56:43.627Z,96753.69
2023-01-19T16:59:17.356Z,96746.13
2023-01-19T17:01:47.000Z,96758.72
2023-01-19T17:04:15.665Z,96752.94
2023-01-19T17:06:46.499Z,96755.63
2023-01-19T17:09:15.463Z,96753.88
2023-01-19T17:11:44.743Z,96755.50
2023-01-19T17:14:15.072Z,96759.09
2023-01-19T17:16:43.644Z,96758.31
2023-01-19T17:19:16.467Z,96754.06
2023-01-19T17:21:48.612Z,96756.19
2023-01-19T17:24:17.566Z,96758.50
2023-01-19T17:26:48.566Z,96753.47
2023-01-19T17:29:17.594Z,96756.28
2023-01-19T17:31:46.809Z,96762.34
2023-01-19T17:34:15.408Z,96768.22
2023-01-19T17:36:44.253Z,96766.63
2023-01-19T17:39:16.752Z,96765.84
2023-01-19T17:41:45.403Z,96768.59
2023-01-19T17:44:13.938Z,96764.38
2023-01-19T17:46:42.506Z,96765.53
2023-01-19T17:49:12.302Z,96765.53
2023-01-19T17:51:40.752Z,96774.94
2023-01-19T17:54:10.751Z,96762.41
2023-01-19T17:56:41.275Z,96758.34
2023-01-19T17:59:12.022Z,96763.34
2023-01-19T18:01:40.771Z,96768.63
2023-01-19T18:04:10.083Z,96770.34
2023-01-19T18:06:39.217Z,96772.84
2023-01-19T18:09:11.134Z,96772.88
2023-01-19T18:11:42.768Z,96777.31
2023-01-19T18:14:11.608Z,96772.09
2023-01-19T18:16:40.636Z,96773.00
2023-01-19T18:19:09.238Z,96773.19
2023-01-19T18:21:38.180Z,96765.00
2023-01-19T18:24:07.633Z,96773.44
2023-01-19T18:26:37.598Z,96769.41
2023-01-19T18:29:07.676Z,96768.84
2023-01-19T18:31:36.352Z,96758.88
2023-01-19T18:34:05.058Z,96766.59
2023-01-19T18:36:34.221Z,96766.81
2023-01-19T18:39:03.232Z,96772.78
2023-01-19T18:41:32.033Z,96771.28
2023-01-19T18:44:01.099Z,96777.69
2023-01-19T18:46:31.182Z,96765.88
2023-01-19T18:48:59.737Z,96777.69
2023-01-19T18:51:29.150Z,96774.22
2023-01-19T18:53:58.155Z,96774.16
2023-01-19T18:56:27.404Z,96779.16
2023-01-19T18:58:55.928Z,96776.75
2023-01-19T19:01:26.654Z,96776.59
2023-01-19T19:03:57.663Z,96773.94
2023-01-19T19:06:27.499Z,96774.69
2023-01-19T19:08:59.629Z,96772.06
2023-01-19T19:11:31.301Z,96772.72
2023-01-19T19:14:01.537Z,96775.22
2023-01-19T19:16:32.201Z,96762.47
2023-01-19T19:19:04.029Z,96761.69
2023-01-19T19:21:32.570Z,96765.84
2023-01-19T19:24:01.273Z,96772.59
2023-01-19T19:26:30.144Z,96764.16
2023-01-19T19:28:58.686Z,96764.06
2023-01-19T19:31:28.223Z,96774.19
2023-01-19T19:33:57.721Z,96763.19
2023-01-19T19:36:28.960Z,96757.25
2023-01-19T19:38:59.630Z,96768.28
2023-01-19T19:41:29.584Z,96760.59
2023-01-19T19:43:58.249Z,96767.31
2023-01-19T19:46:27.671Z,96771.47
2023-01-19T19:48:56.308Z,96770.66
2023-01-19T19:51:27.904Z,96768.94
2023-01-19T19:53:58.643Z,96769.13
2023-01-19T19:56:29.862Z,96775.81
2023-01-19T19:59:00.055Z,96774.16
2023-01-19T20:01:33.189Z,96769.13
2023-01-19T20:04:07.147Z,96770.81
2023-01-19T20:06:39.868Z,96780.28
2023-01-19T20:09:12.580Z,96784.44
2023-01-19T20:11:42.712Z,96786.13
2023-01-19T20:14:13.287Z,96791.84
2023-01-19T20:16:41.931Z,96787.59
2023-01-19T20:19:11.391Z,96791.94
2023-01-19T20:21:42.669Z,96781.81
2023-01-19T20:24:14.411Z,96797.78
2023-01-19T20:26:45.810Z,96797.75
2023-01-19T20:29:14.594Z,96793.56
2023-01-19T20:31:45.235Z,96789.22
2023-01-19T20:34:15.999Z,96798.44
2023-01-19T20:36:49.616Z,96793.38
2023-01-19T20:39:19.703Z,96803.47
2023-01-19T20:41:51.213Z,96790.88
2023-01-19T20:44:22.241Z,96794.19
2023-01-19T20:46:51.353Z,96794.16
2023-01-19T20:49:20.167Z,96810.22
2023-01-19T20:51:51.929Z,96805.91
2023-01-19T20:54:22.924Z,96806.03
2023-01-19T20:56:51.573Z,96806.97
2023-01-19T20:59:21.794Z,96801.91
2023-01-19T21:01:50.983Z,96809.47
2023-01-19T21:04:20.055Z,96806.97
2023-01-19T21:06:49.962Z,96808.63
2023-01-19T21:09:18.976Z,96812.00
2023-01-19T21:11:47.593Z,96817.00
2023-01-19T21:14:16.083Z,96814.34
2023-01-19T21:16:44.629Z,96807.50
2023-01-19T21:19:13.224Z,96814.16
2023-01-19T21:21:41.704Z,96815.94
2023-01-19T21:24:12.043Z,96814.34
2023-01-19T21:26:41.753Z,96819.34
2023-01-19T21:29:13.176Z,96826.84
2023-01-19T21:31:41.846Z,96824.31
2023-01-19T21:34:10.599Z,96821.75
2023-01-19T21:36:39.123Z,96823.38
2023-01-19T21:39:08.193Z,96832.66
2023-01-19T21:41:39.885Z,96828.50
2023-01-19T21:44:08.388Z,96830.22
2023-01-19T21:46:36.887Z,96827.66
2023-01-19T21:49:06.859Z,96834.34
2023-01-19T21:51:37.579Z,96827.78
2023-01-19T21:54:07.552Z,96834.47
2023-01-19T21:56:38.603Z,96833.69
2023-01-19T21:59:07.475Z,96836.19
2023-01-19T22:01:36.546Z,96836.34
2023-01-19T22:04:05.560Z,96843.13
2023-01-19T22:06:34.539Z,96832.19
2023-01-19T22:09:03.136Z,96835.50
2023-01-19T22:11:32.145Z,96830.53
2023-01-19T22:14:02.097Z,96833.28
2023-01-19T22:16:31.242Z,96843.53
2023-01-19T22:19:01.894Z,96844.28
2023-01-19T22:21:31.871Z,96849.31
2023-01-19T22:24:01.871Z,96849.47
2023-01-19T22:26:33.985Z,96853.78
2023-01-19T22:29:06.759Z,96846.19
2023-01-19T22:31:35.349Z,96852.84
2023-01-19T22:34:04.033Z,96856.28
2023-01-19T22:36:33.932Z,96848.84
2023-01-19T22:39:04.903Z,96851.44
2023-01-19T22:41:36.502Z,96856.59
2023-01-19T22:44:08.082Z,96866.78
2023-01-19T22:46:37.866Z,96868.72
2023-01-19T22:49:08.453Z,96861.19
2023-01-19T22:51:37.280Z,96869.78
2023-01-19T22:54:06.095Z,96865.72
2023-01-19T22:56:36.114Z,96865.94
2023-01-19T22:59:06.918Z,96859.44
2023-01-19T23:01:37.842Z,96859.59
2023-01-19T23:04:07.464Z,96873.41
2023-01-19T23:06:37.091Z,96870.19
2023-01-19T23:09:07.749Z,96870.03
2023-01-19T23:11:38.030Z,96866.75
2023-01-19T23:14:10.171Z,96871.81
2023-01-19T23:16:38.657Z,96872.00
2023-01-19T23:19:07.552Z,96872.13
2023-01-19T23:21:36.911Z,96865.38
2023-01-19T23:24:06.141Z,96866.16
2023-01-19T23:26:38.020Z,96863.69
2023-01-19T23:29:12.058Z,96867.09
2023-01-19T23:31:43.769Z,96868.84
2023-01-19T23:34:13.139Z,96869.59
2023-01-19T23:36:42.622Z,96872.13
2023-01-19T23:39:14.637Z,96871.44
2023-01-19T23:41:43.330Z,96881.69
2023-01-19T23:44:13.325Z,96882.41
2023-01-19T23:46:43.845Z,96888.41
2023-01-19T23:49:12.437Z,96889.09
2023-01-19T23:51:41.776Z,96887.38
2023-01-19T23:54:10.266Z,96887.34
2023-01-19T23:56:39.837Z,96898.28
2023-01-19T23:59:10.344Z,96897.47
